sensor_id;sensor_type;location;lat;lon;timestamp;P1;P2
26802;HPM;14378;51.796;5.808;2022-12-26T00:00:37;18.25;17.25
26802;HPM;14378;51.796;5.808;2022-12-26T00:02:38;19.00;18.00
26802;HPM;14378;51.796;5.808;2022-12-26T00:04:39;19.75;18.75
26802;HPM;14378;51.796;5.808;2022-12-26T00:06:40;18.67;17.67
26802;HPM;14378;51.796;5.808;2022-12-26T00:08:41;19.00;18.00
26802;HPM;14378;51.796;5.808;2022-12-26T00:10:43;20.75;19.75
26802;HPM;14378;51.796;5.808;2022-12-26T00:12:43;20.25;19.25
26802;HPM;14378;51.796;5.808;2022-12-26T00:14:44;19.00;18.00
26802;HPM;14378;51.796;5.808;2022-12-26T00:16:45;22.00;21.00
26802;HPM;14378;51.796;5.808;2022-12-26T00:18:46;23.75;22.75
26802;HPM;14378;51.796;5.808;2022-12-26T00:20:50;19.67;18.67
26802;HPM;14378;51.796;5.808;2022-12-26T00:22:51;20.25;19.25
26802;HPM;14378;51.796;5.808;2022-12-26T00:24:52;21.00;20.00
26802;HPM;14378;51.796;5.808;2022-12-26T00:26:53;22.00;21.00
26802;HPM;14378;51.796;5.808;2022-12-26T00:28:54;24.67;23.67
26802;HPM;14378;51.796;5.808;2022-12-26T00:30:55;22.50;21.50
26802;HPM;14378;51.796;5.808;2022-12-26T00:32:56;21.33;20.33
26802;HPM;14378;51.796;5.808;2022-12-26T00:34:57;23.00;22.00
26802;HPM;14378;51.796;5.808;2022-12-26T00:36:58;27.25;25.50
26802;HPM;14378;51.796;5.808;2022-12-26T00:39:00;29.75;27.75
26802;HPM;14378;51.796;5.808;2022-12-26T00:41:02;25.50;24.00
26802;HPM;14378;51.796;5.808;2022-12-26T00:43:07;25.00;24.00
26802;HPM;14378;51.796;5.808;2022-12-26T00:45:08;23.75;22.75
26802;HPM;14378;51.796;5.808;2022-12-26T00:47:10;25.00;24.00
26802;HPM;14378;51.796;5.808;2022-12-26T00:49:10;22.25;21.25
26802;HPM;14378;51.796;5.808;2022-12-26T00:51:12;22.00;21.00
26802;HPM;14378;51.796;5.808;2022-12-26T00:53:14;21.50;20.50
26802;HPM;14378;51.796;5.808;2022-12-26T00:55:15;23.00;22.00
26802;HPM;14378;51.796;5.808;2022-12-26T00:57:16;22.00;21.00
26802;HPM;14378;51.796;5.808;2022-12-26T00:59:17;25.75;24.25
26802;HPM;14378;51.796;5.808;2022-12-26T01:03:07;27.33;25.33
26802;HPM;14378;51.796;5.808;2022-12-26T01:05:09;24.00;23.00
26802;HPM;14378;51.796;5.808;2022-12-26T01:07:11;21.75;20.75
26802;HPM;14378;51.796;5.808;2022-12-26T01:09:12;25.75;24.25
26802;HPM;14378;51.796;5.808;2022-12-26T01:11:15;23.00;22.00
26802;HPM;14378;51.796;5.808;2022-12-26T01:13:39;27.75;25.75
26802;HPM;14378;51.796;5.808;2022-12-26T01:15:46;23.75;22.75
26802;HPM;14378;51.796;5.808;2022-12-26T01:17:53;22.25;21.25
26802;HPM;14378;51.796;5.808;2022-12-26T01:19:54;23.50;22.50
26802;HPM;14378;51.796;5.808;2022-12-26T01:21:56;27.75;26.00
26802;HPM;14378;51.796;5.808;2022-12-26T01:24:00;27.33;25.67
26802;HPM;14378;51.796;5.808;2022-12-26T01:26:01;25.25;24.00
26802;HPM;14378;51.796;5.808;2022-12-26T01:28:05;27.00;25.00
26802;HPM;14378;51.796;5.808;2022-12-26T01:30:06;22.00;21.00
26802;HPM;14378;51.796;5.808;2022-12-26T01:32:07;26.50;24.75
26802;HPM;14378;51.796;5.808;2022-12-26T01:34:08;23.33;22.33
26802;HPM;14378;51.796;5.808;2022-12-26T01:36:09;22.50;21.50
26802;HPM;14378;51.796;5.808;2022-12-26T01:38:10;22.25;21.25
26802;HPM;14378;51.796;5.808;2022-12-26T01:40:11;22.75;21.75
26802;HPM;14378;51.796;5.808;2022-12-26T01:42:17;22.25;21.25
26802;HPM;14378;51.796;5.808;2022-12-26T01:46:52;25.50;24.00
26802;HPM;14378;51.796;5.808;2022-12-26T01:48:53;25.75;24.25
26802;HPM;14378;51.796;5.808;2022-12-26T01:50:56;22.75;21.75
26802;HPM;14378;51.796;5.808;2022-12-26T01:53:07;23.00;22.00
26802;HPM;14378;51.796;5.808;2022-12-26T01:55:13;20.75;19.75
26802;HPM;14378;51.796;5.808;2022-12-26T01:57:28;23.25;22.25
26802;HPM;14378;51.796;5.808;2022-12-26T01:59:32;24.25;23.25
26802;HPM;14378;51.796;5.808;2022-12-26T02:01:37;23.50;22.50
26802;HPM;14378;51.796;5.808;2022-12-26T02:03:41;22.00;21.00
26802;HPM;14378;51.796;5.808;2022-12-26T02:06:03;27.00;25.00
26802;HPM;14378;51.796;5.808;2022-12-26T02:08:07;28.00;26.00
26802;HPM;14378;51.796;5.808;2022-12-26T02:10:13;21.50;20.50
26802;HPM;14378;51.796;5.808;2022-12-26T02:12:20;21.50;20.50
26802;HPM;14378;51.796;5.808;2022-12-26T02:14:24;24.00;23.00
26802;HPM;14378;51.796;5.808;2022-12-26T02:16:25;25.75;24.25
26802;HPM;14378;51.796;5.808;2022-12-26T02:18:27;27.00;25.25
26802;HPM;14378;51.796;5.808;2022-12-26T02:20:28;23.75;22.75
26802;HPM;14378;51.796;5.808;2022-12-26T02:25:21;21.75;20.75
26802;HPM;14378;51.796;5.808;2022-12-26T02:30:37;22.67;21.67
26802;HPM;14378;51.796;5.808;2022-12-26T02:32:49;25.00;23.75
26802;HPM;14378;51.796;5.808;2022-12-26T02:35:13;28.00;26.25
26802;HPM;14378;51.796;5.808;2022-12-26T02:39:59;23.75;22.75
26802;HPM;14378;51.796;5.808;2022-12-26T02:44:42;23.50;22.50
26802;HPM;14378;51.796;5.808;2022-12-26T02:52:20;23.25;22.25
26802;HPM;14378;51.796;5.808;2022-12-26T02:55:00;25.50;24.00
26802;HPM;14378;51.796;5.808;2022-12-26T03:00:30;24.00;23.00
26802;HPM;14378;51.796;5.808;2022-12-26T03:05:28;28.33;26.33
26802;HPM;14378;51.796;5.808;2022-12-26T03:07:53;23.75;22.75
26802;HPM;14378;51.796;5.808;2022-12-26T03:10:19;24.75;23.75
26802;HPM;14378;51.796;5.808;2022-12-26T03:12:55;27.00;25.00
26802;HPM;14378;51.796;5.808;2022-12-26T03:15:14;28.00;26.00
26802;HPM;14378;51.796;5.808;2022-12-26T03:17:29;24.67;23.67
26802;HPM;14378;51.796;5.808;2022-12-26T03:19:35;21.25;20.25
26802;HPM;14378;51.796;5.808;2022-12-26T03:21:57;24.25;23.00
26802;HPM;14378;51.796;5.808;2022-12-26T03:24:00;25.75;24.25
26802;HPM;14378;51.796;5.808;2022-12-26T03:26:02;27.25;25.50
26802;HPM;14378;51.796;5.808;2022-12-26T03:28:27;22.00;21.00
26802;HPM;14378;51.796;5.808;2022-12-26T03:30:29;22.75;21.75
26802;HPM;14378;51.796;5.808;2022-12-26T03:32:49;22.33;21.33
26802;HPM;14378;51.796;5.808;2022-12-26T03:34:51;21.75;20.75
26802;HPM;14378;51.796;5.808;2022-12-26T03:39:41;19.00;18.00
26802;HPM;14378;51.796;5.808;2022-12-26T03:42:22;23.00;22.00
26802;HPM;14378;51.796;5.808;2022-12-26T03:45:26;23.25;22.25
26802;HPM;14378;51.796;5.808;2022-12-26T03:47:57;20.25;19.25
26802;HPM;14378;51.796;5.808;2022-12-26T03:50:44;20.00;19.00
26802;HPM;14378;51.796;5.808;2022-12-26T03:53:23;20.75;19.75
26802;HPM;14378;51.796;5.808;2022-12-26T03:59:09;22.50;21.50
26802;HPM;14378;51.796;5.808;2022-12-26T04:01:33;19.25;18.25
26802;HPM;14378;51.796;5.808;2022-12-26T04:03:56;22.50;21.50
26802;HPM;14378;51.796;5.808;2022-12-26T04:06:22;19.75;18.75
26802;HPM;14378;51.796;5.808;2022-12-26T04:08:54;18.33;17.33
26802;HPM;14378;51.796;5.808;2022-12-26T04:11:19;16.00;15.00
26802;HPM;14378;51.796;5.808;2022-12-26T04:13:49;19.25;18.25
26802;HPM;14378;51.796;5.808;2022-12-26T04:16:26;16.67;15.67
26802;HPM;14378;51.796;5.808;2022-12-26T04:24:07;18.67;17.67
26802;HPM;14378;51.796;5.808;2022-12-26T04:26:39;16.00;15.00
26802;HPM;14378;51.796;5.808;2022-12-26T04:29:03;17.75;16.75
26802;HPM;14378;51.796;5.808;2022-12-26T04:31:26;15.50;14.50
26802;HPM;14378;51.796;5.808;2022-12-26T04:33:51;15.75;14.75
26802;HPM;14378;51.796;5.808;2022-12-26T04:36:18;18.33;17.33
26802;HPM;14378;51.796;5.808;2022-12-26T04:38:50;18.50;17.50
26802;HPM;14378;51.796;5.808;2022-12-26T04:41:15;17.00;16.00
26802;HPM;14378;51.796;5.808;2022-12-26T04:43:35;13.50;12.50
26802;HPM;14378;51.796;5.808;2022-12-26T04:45:56;13.25;12.25
26802;HPM;14378;51.796;5.808;2022-12-26T04:47:58;15.75;14.75
26802;HPM;14378;51.796;5.808;2022-12-26T04:50:18;13.75;12.75
26802;HPM;14378;51.796;5.808;2022-12-26T04:52:19;13.75;12.75
26802;HPM;14378;51.796;5.808;2022-12-26T04:54:21;14.00;13.00
26802;HPM;14378;51.796;5.808;2022-12-26T04:56:22;11.25;10.25
26802;HPM;14378;51.796;5.808;2022-12-26T04:58:23;13.00;12.00
26802;HPM;14378;51.796;5.808;2022-12-26T05:00:26;12.00;11.00
26802;HPM;14378;51.796;5.808;2022-12-26T05:02:27;10.50;9.50
26802;HPM;14378;51.796;5.808;2022-12-26T05:04:50;12.50;11.50
26802;HPM;14378;51.796;5.808;2022-12-26T05:07:19;14.75;13.75
26802;HPM;14378;51.796;5.808;2022-12-26T05:09:44;12.25;11.25
26802;HPM;14378;51.796;5.808;2022-12-26T05:11:48;11.00;10.00
26802;HPM;14378;51.796;5.808;2022-12-26T05:13:50;11.50;10.50
26802;HPM;14378;51.796;5.808;2022-12-26T05:15:52;14.75;13.75
26802;HPM;14378;51.796;5.808;2022-12-26T05:18:14;12.75;11.75
26802;HPM;14378;51.796;5.808;2022-12-26T05:20:34;11.00;10.00
26802;HPM;14378;51.796;5.808;2022-12-26T05:22:53;13.00;12.00
26802;HPM;14378;51.796;5.808;2022-12-26T05:25:18;12.75;11.75
26802;HPM;14378;51.796;5.808;2022-12-26T05:27:58;13.00;12.00
26802;HPM;14378;51.796;5.808;2022-12-26T05:30:21;12.00;11.00
26802;HPM;14378;51.796;5.808;2022-12-26T05:32:22;9.50;8.50
26802;HPM;14378;51.796;5.808;2022-12-26T05:34:46;11.00;10.00
26802;HPM;14378;51.796;5.808;2022-12-26T05:36:47;10.50;9.50
26802;HPM;14378;51.796;5.808;2022-12-26T05:38:50;12.00;11.00
26802;HPM;14378;51.796;5.808;2022-12-26T05:40:51;12.00;11.00
26802;HPM;14378;51.796;5.808;2022-12-26T05:42:52;12.00;11.00
26802;HPM;14378;51.796;5.808;2022-12-26T05:44:53;10.25;9.25
26802;HPM;14378;51.796;5.808;2022-12-26T05:46:54;14.25;13.25
26802;HPM;14378;51.796;5.808;2022-12-26T05:48:58;11.75;10.75
26802;HPM;14378;51.796;5.808;2022-12-26T05:50:59;10.75;9.75
26802;HPM;14378;51.796;5.808;2022-12-26T05:53:01;12.75;11.75
26802;HPM;14378;51.796;5.808;2022-12-26T05:55:03;12.00;11.00
26802;HPM;14378;51.796;5.808;2022-12-26T05:57:04;12.50;11.50
26802;HPM;14378;51.796;5.808;2022-12-26T05:59:05;11.75;10.75
26802;HPM;14378;51.796;5.808;2022-12-26T06:01:10;12.50;11.50
26802;HPM;14378;51.796;5.808;2022-12-26T06:03:13;11.75;10.75
26802;HPM;14378;51.796;5.808;2022-12-26T06:05:14;12.00;11.00
26802;HPM;14378;51.796;5.808;2022-12-26T06:09:16;11.00;10.00
26802;HPM;14378;51.796;5.808;2022-12-26T06:11:20;9.00;8.00
26802;HPM;14378;51.796;5.808;2022-12-26T06:13:22;10.75;9.75
26802;HPM;14378;51.796;5.808;2022-12-26T06:15:23;10.50;9.50
26802;HPM;14378;51.796;5.808;2022-12-26T06:17:25;12.00;11.00
26802;HPM;14378;51.796;5.808;2022-12-26T06:19:26;11.50;10.50
26802;HPM;14378;51.796;5.808;2022-12-26T06:21:28;10.00;9.00
26802;HPM;14378;51.796;5.808;2022-12-26T06:23:32;10.75;9.75
26802;HPM;14378;51.796;5.808;2022-12-26T06:27:36;10.50;9.50
26802;HPM;14378;51.796;5.808;2022-12-26T06:29:37;10.00;9.00
26802;HPM;14378;51.796;5.808;2022-12-26T06:31:38;10.00;9.00
26802;HPM;14378;51.796;5.808;2022-12-26T06:33:39;10.25;9.25
26802;HPM;14378;51.796;5.808;2022-12-26T06:35:41;14.00;13.00
26802;HPM;14378;51.796;5.808;2022-12-26T06:37:42;11.00;10.00
26802;HPM;14378;51.796;5.808;2022-12-26T06:39:42;12.00;11.00
26802;HPM;14378;51.796;5.808;2022-12-26T06:41:43;10.50;9.50
26802;HPM;14378;51.796;5.808;2022-12-26T06:43:44;10.67;9.67
26802;HPM;14378;51.796;5.808;2022-12-26T06:45:53;12.50;11.50
26802;HPM;14378;51.796;5.808;2022-12-26T06:47:58;14.00;13.00
26802;HPM;14378;51.796;5.808;2022-12-26T06:49:59;13.00;12.00
26802;HPM;14378;51.796;5.808;2022-12-26T06:52:00;14.00;13.00
26802;HPM;14378;51.796;5.808;2022-12-26T06:54:01;12.75;11.75
26802;HPM;14378;51.796;5.808;2022-12-26T06:56:09;12.33;11.33
26802;HPM;14378;51.796;5.808;2022-12-26T06:58:15;12.00;11.00
26802;HPM;14378;51.796;5.808;2022-12-26T07:00:16;13.00;12.00
26802;HPM;14378;51.796;5.808;2022-12-26T07:02:21;13.00;12.00
26802;HPM;14378;51.796;5.808;2022-12-26T07:04:22;12.00;11.00
26802;HPM;14378;51.796;5.808;2022-12-26T07:06:31;11.25;10.25
26802;HPM;14378;51.796;5.808;2022-12-26T07:08:33;11.75;10.75
26802;HPM;14378;51.796;5.808;2022-12-26T07:10:34;13.00;12.00
26802;HPM;14378;51.796;5.808;2022-12-26T07:12:36;12.00;11.00
26802;HPM;14378;51.796;5.808;2022-12-26T07:14:37;12.00;11.00
26802;HPM;14378;51.796;5.808;2022-12-26T07:18:40;12.25;11.25
26802;HPM;14378;51.796;5.808;2022-12-26T07:22:53;12.25;11.25
26802;HPM;14378;51.796;5.808;2022-12-26T07:24:54;12.75;11.75
26802;HPM;14378;51.796;5.808;2022-12-26T07:26:55;12.67;11.67
26802;HPM;14378;51.796;5.808;2022-12-26T07:28:57;12.00;11.00
26802;HPM;14378;51.796;5.808;2022-12-26T07:30:58;12.00;11.00
26802;HPM;14378;51.796;5.808;2022-12-26T07:33:00;13.75;12.75
26802;HPM;14378;51.796;5.808;2022-12-26T07:35:01;11.00;10.00
26802;HPM;14378;51.796;5.808;2022-12-26T07:37:02;11.00;10.00
26802;HPM;14378;51.796;5.808;2022-12-26T07:39:03;11.50;10.50
26802;HPM;14378;51.796;5.808;2022-12-26T07:41:03;11.33;10.33
26802;HPM;14378;51.796;5.808;2022-12-26T07:43:25;13.25;12.25
26802;HPM;14378;51.796;5.808;2022-12-26T07:45:25;10.00;9.00
26802;HPM;14378;51.796;5.808;2022-12-26T07:47:26;12.33;11.33
26802;HPM;14378;51.796;5.808;2022-12-26T07:49:27;14.00;13.00
26802;HPM;14378;51.796;5.808;2022-12-26T07:51:28;12.25;11.25
26802;HPM;14378;51.796;5.808;2022-12-26T07:53:29;10.00;9.00
26802;HPM;14378;51.796;5.808;2022-12-26T07:55:30;10.33;9.33
26802;HPM;14378;51.796;5.808;2022-12-26T07:57:31;13.50;12.50
26802;HPM;14378;51.796;5.808;2022-12-26T07:59:31;10.00;9.00
26802;HPM;14378;51.796;5.808;2022-12-26T08:01:33;9.00;8.00
26802;HPM;14378;51.796;5.808;2022-12-26T08:03:34;10.75;9.75
26802;HPM;14378;51.796;5.808;2022-12-26T08:05:38;10.67;9.67
26802;HPM;14378;51.796;5.808;2022-12-26T08:07:38;12.50;11.50
26802;HPM;14378;51.796;5.808;2022-12-26T08:09:39;10.25;9.25
26802;HPM;14378;51.796;5.808;2022-12-26T08:11:42;10.50;9.50
26802;HPM;14378;51.796;5.808;2022-12-26T08:13:44;9.50;8.50
26802;HPM;14378;51.796;5.808;2022-12-26T08:15:44;9.50;8.50
26802;HPM;14378;51.796;5.808;2022-12-26T08:17:51;10.00;9.00
26802;HPM;14378;51.796;5.808;2022-12-26T08:19:52;12.00;11.00
26802;HPM;14378;51.796;5.808;2022-12-26T08:21:53;11.50;10.50
26802;HPM;14378;51.796;5.808;2022-12-26T08:23:54;9.50;8.50
26802;HPM;14378;51.796;5.808;2022-12-26T08:25:55;10.00;9.00
26802;HPM;14378;51.796;5.808;2022-12-26T08:27:57;12.00;11.00
26802;HPM;14378;51.796;5.808;2022-12-26T08:29:58;10.50;9.50
26802;HPM;14378;51.796;5.808;2022-12-26T08:31:59;10.50;9.50
26802;HPM;14378;51.796;5.808;2022-12-26T08:34:00;11.00;10.00
26802;HPM;14378;51.796;5.808;2022-12-26T08:36:03;13.00;12.00
26802;HPM;14378;51.796;5.808;2022-12-26T08:38:05;11.75;10.75
26802;HPM;14378;51.796;5.808;2022-12-26T08:40:06;16.25;15.25
26802;HPM;14378;51.796;5.808;2022-12-26T08:42:07;13.00;12.00
26802;HPM;14378;51.796;5.808;2022-12-26T08:44:09;15.00;14.00
26802;HPM;14378;51.796;5.808;2022-12-26T08:46:12;13.00;12.00
26802;HPM;14378;51.796;5.808;2022-12-26T08:48:13;15.33;14.33
26802;HPM;14378;51.796;5.808;2022-12-26T08:50:14;13.50;12.50
26802;HPM;14378;51.796;5.808;2022-12-26T08:52:16;16.00;15.00
26802;HPM;14378;51.796;5.808;2022-12-26T08:54:20;13.00;12.00
26802;HPM;14378;51.796;5.808;2022-12-26T08:56:22;14.00;13.00
26802;HPM;14378;51.796;5.808;2022-12-26T08:58:24;14.50;13.50
26802;HPM;14378;51.796;5.808;2022-12-26T09:00:25;15.00;14.00
26802;HPM;14378;51.796;5.808;2022-12-26T09:02:26;12.00;11.00
26802;HPM;14378;51.796;5.808;2022-12-26T09:04:27;11.75;10.75
26802;HPM;14378;51.796;5.808;2022-12-26T09:06:30;12.00;11.00
26802;HPM;14378;51.796;5.808;2022-12-26T09:08:33;11.00;10.00
26802;HPM;14378;51.796;5.808;2022-12-26T09:10:34;11.00;10.00
26802;HPM;14378;51.796;5.808;2022-12-26T09:12:35;13.50;12.50
26802;HPM;14378;51.796;5.808;2022-12-26T09:14:36;11.00;10.00
26802;HPM;14378;51.796;5.808;2022-12-26T09:16:44;10.00;9.00
26802;HPM;14378;51.796;5.808;2022-12-26T09:18:50;10.75;9.75
26802;HPM;14378;51.796;5.808;2022-12-26T09:20:53;9.75;8.75
26802;HPM;14378;51.796;5.808;2022-12-26T09:22:54;13.00;12.00
26802;HPM;14378;51.796;5.808;2022-12-26T09:24:55;11.50;10.50
26802;HPM;14378;51.796;5.808;2022-12-26T09:26:56;11.00;10.00
26802;HPM;14378;51.796;5.808;2022-12-26T09:28:57;10.50;9.50
26802;HPM;14378;51.796;5.808;2022-12-26T09:30:59;13.00;12.00
26802;HPM;14378;51.796;5.808;2022-12-26T09:33:03;13.00;12.00
26802;HPM;14378;51.796;5.808;2022-12-26T09:35:07;11.25;10.25
26802;HPM;14378;51.796;5.808;2022-12-26T09:37:08;12.75;11.75
26802;HPM;14378;51.796;5.808;2022-12-26T09:39:09;12.00;11.00
26802;HPM;14378;51.796;5.808;2022-12-26T09:43:25;13.25;12.25
26802;HPM;14378;51.796;5.808;2022-12-26T09:45:44;10.00;9.00
26802;HPM;14378;51.796;5.808;2022-12-26T09:50:33;10.00;9.00
26802;HPM;14378;51.796;5.808;2022-12-26T09:52:42;11.00;10.00
26802;HPM;14378;51.796;5.808;2022-12-26T09:54:52;10.75;9.75
26802;HPM;14378;51.796;5.808;2022-12-26T09:56:58;15.75;14.75
26802;HPM;14378;51.796;5.808;2022-12-26T09:59:13;15.00;14.00
26802;HPM;14378;51.796;5.808;2022-12-26T10:01:25;12.25;11.25
26802;HPM;14378;51.796;5.808;2022-12-26T10:03:29;17.75;16.75
26802;HPM;14378;51.796;5.808;2022-12-26T10:05:37;12.75;11.75
26802;HPM;14378;51.796;5.808;2022-12-26T10:07:58;11.25;10.25
26802;HPM;14378;51.796;5.808;2022-12-26T10:14:42;12.00;11.00
26802;HPM;14378;51.796;5.808;2022-12-26T10:17:09;12.00;11.00
26802;HPM;14378;51.796;5.808;2022-12-26T10:19:25;14.25;13.25
26802;HPM;14378;51.796;5.808;2022-12-26T10:24:22;11.50;10.50
26802;HPM;14378;51.796;5.808;2022-12-26T10:26:33;13.75;12.75
26802;HPM;14378;51.796;5.808;2022-12-26T10:28:46;10.00;9.00
26802;HPM;14378;51.796;5.808;2022-12-26T10:31:12;13.67;12.67
26802;HPM;14378;51.796;5.808;2022-12-26T10:33:26;13.00;12.00
26802;HPM;14378;51.796;5.808;2022-12-26T10:35:41;10.50;9.50
26802;HPM;14378;51.796;5.808;2022-12-26T10:37:44;12.00;11.00
26802;HPM;14378;51.796;5.808;2022-12-26T10:39:47;11.33;10.33
26802;HPM;14378;51.796;5.808;2022-12-26T10:41:51;12.75;11.75
26802;HPM;14378;51.796;5.808;2022-12-26T10:43:56;10.75;9.75
26802;HPM;14378;51.796;5.808;2022-12-26T10:48:16;12.25;11.25
26802;HPM;14378;51.796;5.808;2022-12-26T10:50:19;14.25;13.25
26802;HPM;14378;51.796;5.808;2022-12-26T10:52:29;11.00;10.00
26802;HPM;14378;51.796;5.808;2022-12-26T10:54:33;10.00;9.00
26802;HPM;14378;51.796;5.808;2022-12-26T10:56:34;10.00;9.00
26802;HPM;14378;51.796;5.808;2022-12-26T10:58:35;12.50;11.50
26802;HPM;14378;51.796;5.808;2022-12-26T11:00:39;13.75;12.75
26802;HPM;14378;51.796;5.808;2022-12-26T11:02:40;12.75;11.75
26802;HPM;14378;51.796;5.808;2022-12-26T11:04:55;13.00;12.00
26802;HPM;14378;51.796;5.808;2022-12-26T11:06:56;10.75;9.75
26802;HPM;14378;51.796;5.808;2022-12-26T11:08:57;16.00;15.00
26802;HPM;14378;51.796;5.808;2022-12-26T11:11:06;17.00;16.00
26802;HPM;14378;51.796;5.808;2022-12-26T11:15:27;15.25;14.25
26802;HPM;14378;51.796;5.808;2022-12-26T11:17:41;11.00;10.00
26802;HPM;14378;51.796;5.808;2022-12-26T11:19:44;11.00;10.00
26802;HPM;14378;51.796;5.808;2022-12-26T11:21:45;11.75;10.75
26802;HPM;14378;51.796;5.808;2022-12-26T11:23:47;16.75;15.75
26802;HPM;14378;51.796;5.808;2022-12-26T11:25:56;14.00;13.00
26802;HPM;14378;51.796;5.808;2022-12-26T11:27:59;15.75;14.75
26802;HPM;14378;51.796;5.808;2022-12-26T11:30:26;16.75;15.75
26802;HPM;14378;51.796;5.808;2022-12-26T11:32:28;14.75;13.75
26802;HPM;14378;51.796;5.808;2022-12-26T11:34:32;19.00;18.00
26802;HPM;14378;51.796;5.808;2022-12-26T11:36:34;13.75;12.75
26802;HPM;14378;51.796;5.808;2022-12-26T11:40:54;14.00;13.00
26802;HPM;14378;51.796;5.808;2022-12-26T11:43:14;16.50;15.50
26802;HPM;14378;51.796;5.808;2022-12-26T11:45:19;17.50;16.50
26802;HPM;14378;51.796;5.808;2022-12-26T11:47:26;16.00;15.00
26802;HPM;14378;51.796;5.808;2022-12-26T11:51:40;12.75;11.75
26802;HPM;14378;51.796;5.808;2022-12-26T11:53:44;11.25;10.25
26802;HPM;14378;51.796;5.808;2022-12-26T11:55:46;14.00;13.00
26802;HPM;14378;51.796;5.808;2022-12-26T11:57:59;15.25;14.25
26802;HPM;14378;51.796;5.808;2022-12-26T12:00:16;16.67;15.67
26802;HPM;14378;51.796;5.808;2022-12-26T12:02:30;17.00;16.00
26802;HPM;14378;51.796;5.808;2022-12-26T12:04:31;12.50;11.50
26802;HPM;14378;51.796;5.808;2022-12-26T12:18:33;16.25;15.25
26802;HPM;14378;51.796;5.808;2022-12-26T12:42:08;13.50;12.50
26802;HPM;14378;51.796;5.808;2022-12-26T12:49:23;17.25;16.25
26802;HPM;14378;51.796;5.808;2022-12-26T13:01:42;18.75;17.75
26802;HPM;14378;51.796;5.808;2022-12-26T13:03:49;13.75;12.75
26802;HPM;14378;51.796;5.808;2022-12-26T13:06:03;13.00;12.00
26802;HPM;14378;51.796;5.808;2022-12-26T13:08:07;14.75;13.75
26802;HPM;14378;51.796;5.808;2022-12-26T13:10:15;17.75;16.75
26802;HPM;14378;51.796;5.808;2022-12-26T13:12:31;12.25;11.25
26802;HPM;14378;51.796;5.808;2022-12-26T13:14:43;13.50;12.50
26802;HPM;14378;51.796;5.808;2022-12-26T13:16:56;17.50;16.50
26802;HPM;14378;51.796;5.808;2022-12-26T13:19:05;14.50;13.50
26802;HPM;14378;51.796;5.808;2022-12-26T13:21:34;12.00;11.00
26802;HPM;14378;51.796;5.808;2022-12-26T13:23:46;14.00;13.00
26802;HPM;14378;51.796;5.808;2022-12-26T13:26:36;10.00;9.00
26802;HPM;14378;51.796;5.808;2022-12-26T13:31:07;13.75;12.75
26802;HPM;14378;51.796;5.808;2022-12-26T13:33:11;14.00;13.00
26802;HPM;14378;51.796;5.808;2022-12-26T13:37:55;12.00;11.00
26802;HPM;14378;51.796;5.808;2022-12-26T13:39:57;12.75;11.75
26802;HPM;14378;51.796;5.808;2022-12-26T13:44:23;13.50;12.50
26802;HPM;14378;51.796;5.808;2022-12-26T13:50:48;14.67;13.67
26802;HPM;14378;51.796;5.808;2022-12-26T13:52:50;16.75;15.75
26802;HPM;14378;51.796;5.808;2022-12-26T13:57:00;13.67;12.67
26802;HPM;14378;51.796;5.808;2022-12-26T14:03:45;15.50;14.50
26802;HPM;14378;51.796;5.808;2022-12-26T14:16:07;12.00;11.00
26802;HPM;14378;51.796;5.808;2022-12-26T14:18:37;14.00;13.00
26802;HPM;14378;51.796;5.808;2022-12-26T14:23:25;17.75;16.75
26802;HPM;14378;51.796;5.808;2022-12-26T14:26:01;11.75;10.75
26802;HPM;14378;51.796;5.808;2022-12-26T14:31:12;13.00;12.00
26802;HPM;14378;51.796;5.808;2022-12-26T14:35:30;10.00;9.00
26802;HPM;14378;51.796;5.808;2022-12-26T14:40:07;12.00;11.00
26802;HPM;14378;51.796;5.808;2022-12-26T14:45:14;12.00;11.00
26802;HPM;14378;51.796;5.808;2022-12-26T14:47:39;8.00;7.00
26802;HPM;14378;51.796;5.808;2022-12-26T14:49:48;10.00;9.00
26802;HPM;14378;51.796;5.808;2022-12-26T14:51:50;13.25;12.25
26802;HPM;14378;51.796;5.808;2022-12-26T14:54:52;8.75;7.75
26802;HPM;14378;51.796;5.808;2022-12-26T14:56:35;11.00;10.00
26802;HPM;14378;51.796;5.808;2022-12-26T15:00:44;11.50;10.50
26802;HPM;14378;51.796;5.808;2022-12-26T15:16:46;9.00;8.00
26802;HPM;14378;51.796;5.808;2022-12-26T15:40:19;15.00;14.00
26802;HPM;14378;51.796;5.808;2022-12-26T15:47:58;10.00;9.00
26802;HPM;14378;51.796;5.808;2022-12-26T16:01:41;13.50;12.50
26802;HPM;14378;51.796;5.808;2022-12-26T16:03:48;11.00;10.00
26802;HPM;14378;51.796;5.808;2022-12-26T16:05:57;10.00;9.00
26802;HPM;14378;51.796;5.808;2022-12-26T16:12:32;13.00;12.00
26802;HPM;14378;51.796;5.808;2022-12-26T16:14:37;10.50;9.50
26802;HPM;14378;51.796;5.808;2022-12-26T16:16:53;11.50;10.50
26802;HPM;14378;51.796;5.808;2022-12-26T16:18:54;13.00;12.00
26802;HPM;14378;51.796;5.808;2022-12-26T16:20:56;10.50;9.50
26802;HPM;14378;51.796;5.808;2022-12-26T16:23:19;14.00;13.00
26802;HPM;14378;51.796;5.808;2022-12-26T16:25:24;13.75;12.75
26802;HPM;14378;51.796;5.808;2022-12-26T16:27:25;11.00;10.00
26802;HPM;14378;51.796;5.808;2022-12-26T16:29:28;10.75;9.75
26802;HPM;14378;51.796;5.808;2022-12-26T16:31:30;14.50;13.50
26802;HPM;14378;51.796;5.808;2022-12-26T16:33:42;14.00;13.00
26802;HPM;14378;51.796;5.808;2022-12-26T16:35:43;14.50;13.50
26802;HPM;14378;51.796;5.808;2022-12-26T16:37:45;11.50;10.50
26802;HPM;14378;51.796;5.808;2022-12-26T16:40:06;11.25;10.25
26802;HPM;14378;51.796;5.808;2022-12-26T16:42:29;15.50;14.50
26802;HPM;14378;51.796;5.808;2022-12-26T16:44:36;12.50;11.50
26802;HPM;14378;51.796;5.808;2022-12-26T16:46:38;13.00;12.00
26802;HPM;14378;51.796;5.808;2022-12-26T16:48:39;11.67;10.67
26802;HPM;14378;51.796;5.808;2022-12-26T16:51:01;12.50;11.50
26802;HPM;14378;51.796;5.808;2022-12-26T16:53:11;16.50;15.50
26802;HPM;14378;51.796;5.808;2022-12-26T16:57:30;12.50;11.50
26802;HPM;14378;51.796;5.808;2022-12-26T16:59:37;15.50;14.50
26802;HPM;14378;51.796;5.808;2022-12-26T17:02:04;12.00;11.00
26802;HPM;14378;51.796;5.808;2022-12-26T17:04:20;10.25;9.25
26802;HPM;14378;51.796;5.808;2022-12-26T17:06:27;16.67;15.67
26802;HPM;14378;51.796;5.808;2022-12-26T17:08:34;15.00;14.00
26802;HPM;14378;51.796;5.808;2022-12-26T17:10:39;15.50;14.50
26802;HPM;14378;51.796;5.808;2022-12-26T17:12:47;19.00;18.00
26802;HPM;14378;51.796;5.808;2022-12-26T17:14:52;21.75;20.75
26802;HPM;14378;51.796;5.808;2022-12-26T17:16:55;21.50;20.50
26802;HPM;14378;51.796;5.808;2022-12-26T17:21:18;18.50;17.50
26802;HPM;14378;51.796;5.808;2022-12-26T17:23:37;19.75;18.75
26802;HPM;14378;51.796;5.808;2022-12-26T17:25:45;17.50;16.50
26802;HPM;14378;51.796;5.808;2022-12-26T17:27:47;17.75;16.75
26802;HPM;14378;51.796;5.808;2022-12-26T17:30:23;14.25;13.25
26802;HPM;14378;51.796;5.808;2022-12-26T17:32:32;19.25;18.25
26802;HPM;14378;51.796;5.808;2022-12-26T17:34:39;12.75;11.75
26802;HPM;14378;51.796;5.808;2022-12-26T17:36:41;13.25;12.25
26802;HPM;14378;51.796;5.808;2022-12-26T17:38:42;15.00;14.00